sensor_id;sensor_type;location;lat;lon;timestamp;P1;durP1;ratioP1;P2;durP2;ratioP2
57443;SDS011;43289;52.962;6.196;2023-07-08T00:00:40;7.07;;;3.97;;
57443;SDS011;43289;52.962;6.196;2023-07-08T00:03:06;7.22;;;3.92;;
57443;SDS011;43289;52.962;6.196;2023-07-08T00:05:31;6.82;;;3.97;;
57443;SDS011;43289;52.962;6.196;2023-07-08T00:07:58;10.48;;;4.13;;
57443;SDS011;43289;52.962;6.196;2023-07-08T00:10:25;12.93;;;4.40;;
57443;SDS011;43289;52.962;6.196;2023-07-08T00:12:52;9.20;;;5.07;;
57443;SDS011;43289;52.962;6.196;2023-07-08T00:15:19;7.25;;;4.40;;
57443;SDS011;43289;52.962;6.196;2023-07-08T00:17:46;6.63;;;4.10;;
57443;SDS011;43289;52.962;6.196;2023-07-08T00:20:23;7.45;;;4.30;;
57443;SDS011;43289;52.962;6.196;2023-07-08T00:22:54;7.65;;;4.10;;
57443;SDS011;43289;52.962;6.196;2023-07-08T00:25:20;8.57;;;3.88;;
57443;SDS011;43289;52.962;6.196;2023-07-08T00:27:46;9.93;;;4.15;;
57443;SDS011;43289;52.962;6.196;2023-07-08T00:32:53;7.88;;;4.38;;
57443;SDS011;43289;52.962;6.196;2023-07-08T00:35:25;11.40;;;4.93;;
57443;SDS011;43289;52.962;6.196;2023-07-08T00:37:52;7.65;;;3.85;;
57443;SDS011;43289;52.962;6.196;2023-07-08T00:40:19;8.50;;;4.13;;
57443;SDS011;43289;52.962;6.196;2023-07-08T00:42:45;6.03;;;3.85;;
57443;SDS011;43289;52.962;6.196;2023-07-08T00:45:22;6.97;;;4.30;;
57443;SDS011;43289;52.962;6.196;2023-07-08T00:47:53;8.13;;;4.43;;
57443;SDS011;43289;52.962;6.196;2023-07-08T00:50:19;8.05;;;4.47;;
57443;SDS011;43289;52.962;6.196;2023-07-08T00:52:45;11.13;;;4.85;;
57443;SDS011;43289;52.962;6.196;2023-07-08T00:55:11;7.78;;;4.32;;
57443;SDS011;43289;52.962;6.196;2023-07-08T00:57:39;8.90;;;4.50;;
57443;SDS011;43289;52.962;6.196;2023-07-08T01:00:11;11.73;;;4.90;;
57443;SDS011;43289;52.962;6.196;2023-07-08T01:02:45;7.45;;;4.45;;
57443;SDS011;43289;52.962;6.196;2023-07-08T01:05:13;9.00;;;4.82;;
57443;SDS011;43289;52.962;6.196;2023-07-08T01:07:40;8.93;;;4.78;;
57443;SDS011;43289;52.962;6.196;2023-07-08T01:10:08;9.25;;;4.57;;
57443;SDS011;43289;52.962;6.196;2023-07-08T01:12:42;9.18;;;4.38;;
57443;SDS011;43289;52.962;6.196;2023-07-08T01:15:09;6.90;;;4.25;;
57443;SDS011;43289;52.962;6.196;2023-07-08T01:17:36;9.05;;;4.65;;
57443;SDS011;43289;52.962;6.196;2023-07-08T01:20:03;8.82;;;4.55;;
57443;SDS011;43289;52.962;6.196;2023-07-08T01:22:39;7.85;;;4.90;;
57443;SDS011;43289;52.962;6.196;2023-07-08T01:25:05;10.52;;;4.93;;
57443;SDS011;43289;52.962;6.196;2023-07-08T01:27:34;7.35;;;4.38;;
57443;SDS011;43289;52.962;6.196;2023-07-08T01:30:02;9.48;;;5.93;;
57443;SDS011;43289;52.962;6.196;2023-07-08T01:32:28;8.00;;;4.47;;
57443;SDS011;43289;52.962;6.196;2023-07-08T01:34:57;7.18;;;5.00;;
57443;SDS011;43289;52.962;6.196;2023-07-08T01:37:34;10.77;;;5.30;;
57443;SDS011;43289;52.962;6.196;2023-07-08T01:42:45;6.05;;;4.25;;
57443;SDS011;43289;52.962;6.196;2023-07-08T01:45:12;9.50;;;5.15;;
57443;SDS011;43289;52.962;6.196;2023-07-08T01:47:39;9.30;;;4.90;;
57443;SDS011;43289;52.962;6.196;2023-07-08T01:50:06;8.95;;;4.57;;
57443;SDS011;43289;52.962;6.196;2023-07-08T01:52:33;6.63;;;4.50;;
57443;SDS011;43289;52.962;6.196;2023-07-08T01:54:59;7.90;;;4.95;;
57443;SDS011;43289;52.962;6.196;2023-07-08T01:57:25;10.07;;;4.53;;
57443;SDS011;43289;52.962;6.196;2023-07-08T01:59:51;8.63;;;4.78;;
57443;SDS011;43289;52.962;6.196;2023-07-08T02:02:17;6.63;;;4.55;;
57443;SDS011;43289;52.962;6.196;2023-07-08T02:04:43;8.63;;;5.00;;
57443;SDS011;43289;52.962;6.196;2023-07-08T02:07:09;7.55;;;4.78;;
57443;SDS011;43289;52.962;6.196;2023-07-08T02:09:35;9.48;;;4.82;;
57443;SDS011;43289;52.962;6.196;2023-07-08T02:12:01;7.30;;;4.65;;
57443;SDS011;43289;52.962;6.196;2023-07-08T02:14:27;9.90;;;4.75;;
57443;SDS011;43289;52.962;6.196;2023-07-08T02:16:53;8.30;;;4.47;;
57443;SDS011;43289;52.962;6.196;2023-07-08T02:19:19;10.27;;;4.50;;
57443;SDS011;43289;52.962;6.196;2023-07-08T02:21:47;7.85;;;4.65;;
57443;SDS011;43289;52.962;6.196;2023-07-08T02:24:13;8.25;;;5.00;;
57443;SDS011;43289;52.962;6.196;2023-07-08T02:26:42;6.55;;;4.80;;
57443;SDS011;43289;52.962;6.196;2023-07-08T02:29:08;7.00;;;4.75;;
57443;SDS011;43289;52.962;6.196;2023-07-08T02:31:34;7.07;;;4.75;;
57443;SDS011;43289;52.962;6.196;2023-07-08T02:34:00;15.27;;;4.85;;
57443;SDS011;43289;52.962;6.196;2023-07-08T02:36:29;9.07;;;5.22;;
57443;SDS011;43289;52.962;6.196;2023-07-08T02:38:55;8.82;;;5.20;;
57443;SDS011;43289;52.962;6.196;2023-07-08T02:41:21;7.03;;;4.63;;
57443;SDS011;43289;52.962;6.196;2023-07-08T02:43:47;8.50;;;4.95;;
57443;SDS011;43289;52.962;6.196;2023-07-08T02:46:13;10.73;;;4.88;;
57443;SDS011;43289;52.962;6.196;2023-07-08T02:48:39;8.15;;;4.90;;
57443;SDS011;43289;52.962;6.196;2023-07-08T02:51:05;11.88;;;5.60;;
57443;SDS011;43289;52.962;6.196;2023-07-08T02:53:31;9.00;;;5.57;;
57443;SDS011;43289;52.962;6.196;2023-07-08T02:55:57;9.05;;;4.85;;
57443;SDS011;43289;52.962;6.196;2023-07-08T02:58:23;7.25;;;4.78;;
57443;SDS011;43289;52.962;6.196;2023-07-08T03:00:56;7.18;;;4.75;;
57443;SDS011;43289;52.962;6.196;2023-07-08T03:03:26;8.50;;;4.80;;
57443;SDS011;43289;52.962;6.196;2023-07-08T03:05:59;7.45;;;5.10;;
57443;SDS011;43289;52.962;6.196;2023-07-08T03:08:25;8.63;;;5.07;;
57443;SDS011;43289;52.962;6.196;2023-07-08T03:10:55;8.23;;;5.85;;
57443;SDS011;43289;52.962;6.196;2023-07-08T03:13:22;8.00;;;4.78;;
57443;SDS011;43289;52.962;6.196;2023-07-08T03:15:48;11.18;;;6.45;;
57443;SDS011;43289;52.962;6.196;2023-07-08T03:18:14;8.35;;;5.57;;
57443;SDS011;43289;52.962;6.196;2023-07-08T03:20:40;7.75;;;5.22;;
57443;SDS011;43289;52.962;6.196;2023-07-08T03:23:09;11.30;;;5.22;;
57443;SDS011;43289;52.962;6.196;2023-07-08T03:25:35;7.88;;;4.70;;
57443;SDS011;43289;52.962;6.196;2023-07-08T03:28:02;8.00;;;5.72;;
57443;SDS011;43289;52.962;6.196;2023-07-08T03:30:31;8.07;;;5.55;;
57443;SDS011;43289;52.962;6.196;2023-07-08T03:32:57;9.98;;;5.07;;
57443;SDS011;43289;52.962;6.196;2023-07-08T03:35:23;7.82;;;5.40;;
57443;SDS011;43289;52.962;6.196;2023-07-08T03:37:50;7.15;;;5.60;;
57443;SDS011;43289;52.962;6.196;2023-07-08T03:40:16;8.40;;;5.07;;
57443;SDS011;43289;52.962;6.196;2023-07-08T03:42:42;11.52;;;5.32;;
57443;SDS011;43289;52.962;6.196;2023-07-08T03:45:08;9.15;;;6.30;;
57443;SDS011;43289;52.962;6.196;2023-07-08T03:47:34;9.63;;;5.60;;
57443;SDS011;43289;52.962;6.196;2023-07-08T03:50:00;10.50;;;5.57;;
57443;SDS011;43289;52.962;6.196;2023-07-08T03:52:27;11.10;;;5.63;;
57443;SDS011;43289;52.962;6.196;2023-07-08T03:54:53;8.65;;;5.63;;
57443;SDS011;43289;52.962;6.196;2023-07-08T03:57:23;10.85;;;5.95;;
57443;SDS011;43289;52.962;6.196;2023-07-08T03:59:52;8.10;;;5.63;;
57443;SDS011;43289;52.962;6.196;2023-07-08T04:02:18;7.55;;;5.43;;
57443;SDS011;43289;52.962;6.196;2023-07-08T04:04:44;11.45;;;5.38;;
57443;SDS011;43289;52.962;6.196;2023-07-08T04:07:11;9.05;;;5.57;;
57443;SDS011;43289;52.962;6.196;2023-07-08T04:09:37;7.93;;;5.47;;
57443;SDS011;43289;52.962;6.196;2023-07-08T04:12:03;7.22;;;5.13;;
57443;SDS011;43289;52.962;6.196;2023-07-08T04:14:31;9.35;;;4.97;;
57443;SDS011;43289;52.962;6.196;2023-07-08T04:16:57;7.80;;;4.97;;
57443;SDS011;43289;52.962;6.196;2023-07-08T04:19:24;8.88;;;5.20;;
57443;SDS011;43289;52.962;6.196;2023-07-08T04:21:52;11.68;;;5.78;;
57443;SDS011;43289;52.962;6.196;2023-07-08T04:24:19;8.18;;;5.68;;
57443;SDS011;43289;52.962;6.196;2023-07-08T04:26:45;11.73;;;5.05;;
57443;SDS011;43289;52.962;6.196;2023-07-08T04:29:13;11.45;;;6.15;;
57443;SDS011;43289;52.962;6.196;2023-07-08T04:31:39;11.02;;;6.45;;
57443;SDS011;43289;52.962;6.196;2023-07-08T04:34:08;8.80;;;5.35;;
57443;SDS011;43289;52.962;6.196;2023-07-08T04:36:35;8.32;;;5.82;;
57443;SDS011;43289;52.962;6.196;2023-07-08T04:39:02;7.85;;;5.30;;
57443;SDS011;43289;52.962;6.196;2023-07-08T04:41:28;9.85;;;5.28;;
57443;SDS011;43289;52.962;6.196;2023-07-08T04:43:54;9.80;;;6.13;;
57443;SDS011;43289;52.962;6.196;2023-07-08T04:46:44;7.90;;;5.97;;
57443;SDS011;43289;52.962;6.196;2023-07-08T04:49:08;9.77;;;5.55;;
57443;SDS011;43289;52.962;6.196;2023-07-08T04:51:35;7.05;;;5.13;;
57443;SDS011;43289;52.962;6.196;2023-07-08T04:54:01;8.25;;;5.25;;
57443;SDS011;43289;52.962;6.196;2023-07-08T04:59:03;22.20;;;5.78;;
57443;SDS011;43289;52.962;6.196;2023-07-08T05:01:29;8.23;;;5.75;;
57443;SDS011;43289;52.962;6.196;2023-07-08T05:03:55;8.43;;;6.03;;
57443;SDS011;43289;52.962;6.196;2023-07-08T05:06:21;9.77;;;5.07;;
57443;SDS011;43289;52.962;6.196;2023-07-08T05:08:47;8.27;;;5.32;;
57443;SDS011;43289;52.962;6.196;2023-07-08T05:11:13;9.85;;;5.70;;
57443;SDS011;43289;52.962;6.196;2023-07-08T05:13:39;9.15;;;5.68;;
57443;SDS011;43289;52.962;6.196;2023-07-08T05:16:05;10.90;;;5.47;;
57443;SDS011;43289;52.962;6.196;2023-07-08T05:18:31;10.55;;;6.57;;
57443;SDS011;43289;52.962;6.196;2023-07-08T05:20:57;7.13;;;4.57;;
57443;SDS011;43289;52.962;6.196;2023-07-08T05:23:23;9.43;;;5.63;;
57443;SDS011;43289;52.962;6.196;2023-07-08T05:25:49;7.63;;;4.47;;
57443;SDS011;43289;52.962;6.196;2023-07-08T05:28:15;7.18;;;5.13;;
57443;SDS011;43289;52.962;6.196;2023-07-08T05:30:42;8.88;;;4.53;;
57443;SDS011;43289;52.962;6.196;2023-07-08T05:33:08;7.57;;;4.47;;
57443;SDS011;43289;52.962;6.196;2023-07-08T05:35:34;8.32;;;4.93;;
57443;SDS011;43289;52.962;6.196;2023-07-08T05:38:01;8.43;;;5.15;;
57443;SDS011;43289;52.962;6.196;2023-07-08T05:40:27;9.98;;;5.32;;
57443;SDS011;43289;52.962;6.196;2023-07-08T05:42:53;8.55;;;4.85;;
57443;SDS011;43289;52.962;6.196;2023-07-08T05:45:19;7.40;;;4.75;;
57443;SDS011;43289;52.962;6.196;2023-07-08T05:47:45;6.20;;;4.82;;
57443;SDS011;43289;52.962;6.196;2023-07-08T05:50:10;8.00;;;5.10;;
57443;SDS011;43289;52.962;6.196;2023-07-08T05:52:36;5.93;;;4.53;;
57443;SDS011;43289;52.962;6.196;2023-07-08T05:55:04;9.95;;;5.43;;
57443;SDS011;43289;52.962;6.196;2023-07-08T05:57:30;8.30;;;4.28;;
57443;SDS011;43289;52.962;6.196;2023-07-08T05:59:56;6.13;;;4.53;;
57443;SDS011;43289;52.962;6.196;2023-07-08T06:02:22;7.93;;;4.63;;
57443;SDS011;43289;52.962;6.196;2023-07-08T06:04:50;7.43;;;4.10;;
57443;SDS011;43289;52.962;6.196;2023-07-08T06:07:16;7.30;;;4.45;;
57443;SDS011;43289;52.962;6.196;2023-07-08T06:09:43;8.18;;;4.88;;
57443;SDS011;43289;52.962;6.196;2023-07-08T06:12:09;6.80;;;4.20;;
57443;SDS011;43289;52.962;6.196;2023-07-08T06:14:36;8.45;;;4.43;;
57443;SDS011;43289;52.962;6.196;2023-07-08T06:17:02;7.88;;;4.60;;
57443;SDS011;43289;52.962;6.196;2023-07-08T06:19:28;7.32;;;4.22;;
57443;SDS011;43289;52.962;6.196;2023-07-08T06:21:54;6.90;;;3.88;;
57443;SDS011;43289;52.962;6.196;2023-07-08T06:24:19;9.32;;;4.53;;
57443;SDS011;43289;52.962;6.196;2023-07-08T06:26:45;5.90;;;4.10;;
57443;SDS011;43289;52.962;6.196;2023-07-08T06:29:12;6.05;;;4.10;;
57443;SDS011;43289;52.962;6.196;2023-07-08T06:31:38;6.32;;;3.90;;
57443;SDS011;43289;52.962;6.196;2023-07-08T06:34:03;5.85;;;4.13;;
57443;SDS011;43289;52.962;6.196;2023-07-08T06:36:29;8.77;;;4.22;;
57443;SDS011;43289;52.962;6.196;2023-07-08T06:38:55;7.03;;;4.03;;
57443;SDS011;43289;52.962;6.196;2023-07-08T06:41:21;10.70;;;4.32;;
57443;SDS011;43289;52.962;6.196;2023-07-08T06:43:46;7.57;;;4.38;;
57443;SDS011;43289;52.962;6.196;2023-07-08T06:46:12;6.93;;;4.18;;
57443;SDS011;43289;52.962;6.196;2023-07-08T06:48:38;5.43;;;4.22;;
57443;SDS011;43289;52.962;6.196;2023-07-08T06:51:03;7.00;;;3.70;;
57443;SDS011;43289;52.962;6.196;2023-07-08T06:53:29;7.13;;;4.47;;
57443;SDS011;43289;52.962;6.196;2023-07-08T06:55:54;8.27;;;4.05;;
57443;SDS011;43289;52.962;6.196;2023-07-08T06:58:20;5.68;;;3.65;;
57443;SDS011;43289;52.962;6.196;2023-07-08T07:00:45;6.82;;;3.72;;
57443;SDS011;43289;52.962;6.196;2023-07-08T07:03:11;7.30;;;3.85;;
57443;SDS011;43289;52.962;6.196;2023-07-08T07:05:38;5.57;;;3.33;;
57443;SDS011;43289;52.962;6.196;2023-07-08T07:08:04;8.27;;;4.18;;
57443;SDS011;43289;52.962;6.196;2023-07-08T07:10:31;8.38;;;3.40;;
57443;SDS011;43289;52.962;6.196;2023-07-08T07:12:57;8.18;;;3.92;;
57443;SDS011;43289;52.962;6.196;2023-07-08T07:15:23;7.18;;;3.88;;
57443;SDS011;43289;52.962;6.196;2023-07-08T07:17:50;4.63;;;3.20;;
57443;SDS011;43289;52.962;6.196;2023-07-08T07:20:16;6.28;;;3.38;;
57443;SDS011;43289;52.962;6.196;2023-07-08T07:22:42;7.47;;;3.85;;
57443;SDS011;43289;52.962;6.196;2023-07-08T07:25:08;6.63;;;3.70;;
57443;SDS011;43289;52.962;6.196;2023-07-08T07:27:34;5.68;;;3.65;;
57443;SDS011;43289;52.962;6.196;2023-07-08T07:30:00;6.22;;;3.58;;
57443;SDS011;43289;52.962;6.196;2023-07-08T07:32:29;5.25;;;3.15;;
57443;SDS011;43289;52.962;6.196;2023-07-08T07:34:57;10.10;;;4.00;;
57443;SDS011;43289;52.962;6.196;2023-07-08T07:37:24;5.30;;;3.17;;
57443;SDS011;43289;52.962;6.196;2023-07-08T07:39:50;5.38;;;3.58;;
57443;SDS011;43289;52.962;6.196;2023-07-08T07:42:16;5.40;;;3.08;;
57443;SDS011;43289;52.962;6.196;2023-07-08T07:44:42;5.75;;;3.38;;
57443;SDS011;43289;52.962;6.196;2023-07-08T07:47:08;5.22;;;3.15;;
57443;SDS011;43289;52.962;6.196;2023-07-08T07:49:35;5.47;;;3.03;;
57443;SDS011;43289;52.962;6.196;2023-07-08T07:52:01;5.90;;;3.08;;
57443;SDS011;43289;52.962;6.196;2023-07-08T07:54:27;6.00;;;3.20;;
57443;SDS011;43289;52.962;6.196;2023-07-08T07:56:53;7.18;;;3.80;;
57443;SDS011;43289;52.962;6.196;2023-07-08T07:59:19;6.47;;;3.20;;
57443;SDS011;43289;52.962;6.196;2023-07-08T08:01:45;5.85;;;3.20;;
57443;SDS011;43289;52.962;6.196;2023-07-08T08:04:11;8.23;;;3.10;;
57443;SDS011;43289;52.962;6.196;2023-07-08T08:06:37;7.10;;;3.28;;
57443;SDS011;43289;52.962;6.196;2023-07-08T08:09:05;6.97;;;3.17;;
57443;SDS011;43289;52.962;6.196;2023-07-08T08:11:31;7.05;;;3.65;;
57443;SDS011;43289;52.962;6.196;2023-07-08T08:13:57;5.90;;;3.35;;
57443;SDS011;43289;52.962;6.196;2023-07-08T08:16:23;4.38;;;2.67;;
57443;SDS011;43289;52.962;6.196;2023-07-08T08:18:49;5.63;;;2.90;;
57443;SDS011;43289;52.962;6.196;2023-07-08T08:21:15;5.03;;;3.38;;
57443;SDS011;43289;52.962;6.196;2023-07-08T08:23:41;6.20;;;3.35;;
57443;SDS011;43289;52.962;6.196;2023-07-08T08:26:07;6.80;;;3.30;;
57443;SDS011;43289;52.962;6.196;2023-07-08T08:28:32;5.05;;;3.13;;
57443;SDS011;43289;52.962;6.196;2023-07-08T08:30:58;6.75;;;3.20;;
57443;SDS011;43289;52.962;6.196;2023-07-08T08:33:23;5.55;;;3.10;;
57443;SDS011;43289;52.962;6.196;2023-07-08T08:35:49;7.10;;;3.20;;
57443;SDS011;43289;52.962;6.196;2023-07-08T08:38:14;6.20;;;3.15;;
57443;SDS011;43289;52.962;6.196;2023-07-08T08:40:42;7.97;;;3.13;;
57443;SDS011;43289;52.962;6.196;2023-07-08T08:43:19;6.85;;;3.20;;
57443;SDS011;43289;52.962;6.196;2023-07-08T08:48:35;5.78;;;3.38;;
57443;SDS011;43289;52.962;6.196;2023-07-08T08:51:10;9.68;;;3.95;;
57443;SDS011;43289;52.962;6.196;2023-07-08T08:53:38;6.88;;;3.25;;
57443;SDS011;43289;52.962;6.196;2023-07-08T09:02:28;7.85;;;3.22;;
57443;SDS011;43289;52.962;6.196;2023-07-08T09:05:18;5.78;;;3.30;;
57443;SDS011;43289;52.962;6.196;2023-07-08T09:08:01;4.63;;;3.15;;
57443;SDS011;43289;52.962;6.196;2023-07-08T09:13:09;4.93;;;3.17;;
57443;SDS011;43289;52.962;6.196;2023-07-08T09:15:41;6.00;;;3.55;;
57443;SDS011;43289;52.962;6.196;2023-07-08T09:18:14;7.15;;;3.40;;
57443;SDS011;43289;52.962;6.196;2023-07-08T09:20:52;9.95;;;3.88;;
57443;SDS011;43289;52.962;6.196;2023-07-08T09:23:26;5.15;;;3.35;;
57443;SDS011;43289;52.962;6.196;2023-07-08T09:26:03;5.13;;;3.70;;
57443;SDS011;43289;52.962;6.196;2023-07-08T09:28:39;6.95;;;3.53;;
57443;SDS011;43289;52.962;6.196;2023-07-08T09:31:06;6.00;;;3.95;;
57443;SDS011;43289;52.962;6.196;2023-07-08T09:33:36;4.88;;;3.22;;
57443;SDS011;43289;52.962;6.196;2023-07-08T09:36:03;5.28;;;3.30;;
57443;SDS011;43289;52.962;6.196;2023-07-08T09:38:47;6.03;;;3.30;;
57443;SDS011;43289;52.962;6.196;2023-07-08T09:41:16;5.20;;;3.63;;
57443;SDS011;43289;52.962;6.196;2023-07-08T09:44:29;6.38;;;3.33;;
57443;SDS011;43289;52.962;6.196;2023-07-08T09:46:55;6.82;;;2.95;;
57443;SDS011;43289;52.962;6.196;2023-07-08T09:49:23;6.05;;;3.58;;
57443;SDS011;43289;52.962;6.196;2023-07-08T09:51:54;5.03;;;3.10;;
57443;SDS011;43289;52.962;6.196;2023-07-08T09:54:23;6.57;;;3.45;;
57443;SDS011;43289;52.962;6.196;2023-07-08T09:56:54;5.72;;;3.40;;
57443;SDS011;43289;52.962;6.196;2023-07-08T09:59:27;8.00;;;3.53;;
57443;SDS011;43289;52.962;6.196;2023-07-08T10:01:59;4.65;;;3.22;;
57443;SDS011;43289;52.962;6.196;2023-07-08T10:04:26;6.15;;;3.20;;
57443;SDS011;43289;52.962;6.196;2023-07-08T10:06:53;6.43;;;3.42;;
57443;SDS011;43289;52.962;6.196;2023-07-08T10:09:20;5.95;;;3.50;;
57443;SDS011;43289;52.962;6.196;2023-07-08T10:11:52;6.30;;;3.35;;
57443;SDS011;43289;52.962;6.196;2023-07-08T10:17:01;9.00;;;3.05;;
57443;SDS011;43289;52.962;6.196;2023-07-08T10:19:27;5.95;;;3.70;;
57443;SDS011;43289;52.962;6.196;2023-07-08T10:22:06;6.38;;;3.28;;
57443;SDS011;43289;52.962;6.196;2023-07-08T10:27:26;6.57;;;3.75;;
57443;SDS011;43289;52.962;6.196;2023-07-08T10:35:34;6.22;;;3.40;;
57443;SDS011;43289;52.962;6.196;2023-07-08T10:38:25;7.13;;;3.45;;
57443;SDS011;43289;52.962;6.196;2023-07-08T10:44:34;6.53;;;3.40;;
57443;SDS011;43289;52.962;6.196;2023-07-08T10:46:55;6.47;;;3.40;;
57443;SDS011;43289;52.962;6.196;2023-07-08T10:58:11;6.30;;;3.42;;
57443;SDS011;43289;52.962;6.196;2023-07-08T11:01:09;6.55;;;3.30;;
57443;SDS011;43289;52.962;6.196;2023-07-08T11:04:07;6.60;;;3.30;;
57443;SDS011;43289;52.962;6.196;2023-07-08T11:06:56;6.88;;;3.50;;
57443;SDS011;43289;52.962;6.196;2023-07-08T11:09:34;7.78;;;3.38;;
57443;SDS011;43289;52.962;6.196;2023-07-08T11:17:55;5.50;;;3.13;;
57443;SDS011;43289;52.962;6.196;2023-07-08T11:20:25;5.80;;;3.30;;
57443;SDS011;43289;52.962;6.196;2023-07-08T11:22:58;7.80;;;3.47;;
57443;SDS011;43289;52.962;6.196;2023-07-08T11:25:33;6.53;;;3.47;;
57443;SDS011;43289;52.962;6.196;2023-07-08T11:28:02;33.17;;;4.78;;
57443;SDS011;43289;52.962;6.196;2023-07-08T11:30:30;5.63;;;3.63;;
57443;SDS011;43289;52.962;6.196;2023-07-08T11:33:03;5.57;;;4.10;;
57443;SDS011;43289;52.962;6.196;2023-07-08T11:38:15;5.05;;;3.50;;
57443;SDS011;43289;52.962;6.196;2023-07-08T11:40:59;8.90;;;3.42;;
57443;SDS011;43289;52.962;6.196;2023-07-08T11:43:49;6.83;;;4.00;;
57443;SDS011;43289;52.962;6.196;2023-07-08T11:46:17;7.25;;;4.00;;
57443;SDS011;43289;52.962;6.196;2023-07-08T11:48:46;6.43;;;3.20;;
57443;SDS011;43289;52.962;6.196;2023-07-08T11:51:27;7.30;;;3.60;;
57443;SDS011;43289;52.962;6.196;2023-07-08T11:53:59;7.40;;;3.15;;
57443;SDS011;43289;52.962;6.196;2023-07-08T11:56:46;8.17;;;3.90;;
57443;SDS011;43289;52.962;6.196;2023-07-08T11:59:18;5.88;;;3.60;;
57443;SDS011;43289;52.962;6.196;2023-07-08T12:07:01;6.63;;;3.90;;
57443;SDS011;43289;52.962;6.196;2023-07-08T12:09:28;6.30;;;3.20;;
57443;SDS011;43289;52.962;6.196;2023-07-08T12:12:01;7.82;;;3.63;;
57443;SDS011;43289;52.962;6.196;2023-07-08T12:14:30;6.28;;;3.22;;
57443;SDS011;43289;52.962;6.196;2023-07-08T12:16:57;5.93;;;3.55;;
57443;SDS011;43289;52.962;6.196;2023-07-08T12:19:23;5.82;;;3.85;;
57443;SDS011;43289;52.962;6.196;2023-07-08T12:21:52;5.20;;;4.07;;
57443;SDS011;43289;52.962;6.196;2023-07-08T12:24:17;8.13;;;3.58;;
57443;SDS011;43289;52.962;6.196;2023-07-08T12:26:50;5.88;;;3.75;;
57443;SDS011;43289;52.962;6.196;2023-07-08T12:29:15;8.13;;;4.10;;
57443;SDS011;43289;52.962;6.196;2023-07-08T12:31:41;7.75;;;3.72;;
57443;SDS011;43289;52.962;6.196;2023-07-08T12:34:12;10.57;;;4.20;;
57443;SDS011;43289;52.962;6.196;2023-07-08T12:36:40;5.32;;;3.97;;
57443;SDS011;43289;52.962;6.196;2023-07-08T12:39:08;7.93;;;4.05;;
57443;SDS011;43289;52.962;6.196;2023-07-08T12:41:40;5.73;;;4.00;;
57443;SDS011;43289;52.962;6.196;2023-07-08T12:44:25;7.40;;;4.13;;
57443;SDS011;43289;52.962;6.196;2023-07-08T12:46:52;6.88;;;3.97;;
57443;SDS011;43289;52.962;6.196;2023-07-08T12:49:19;5.15;;;3.70;;
57443;SDS011;43289;52.962;6.196;2023-07-08T12:51:45;7.13;;;4.47;;
57443;SDS011;43289;52.962;6.196;2023-07-08T12:54:12;8.57;;;3.90;;
57443;SDS011;43289;52.962;6.196;2023-07-08T12:56:38;8.77;;;4.05;;
57443;SDS011;43289;52.962;6.196;2023-07-08T12:59:05;6.25;;;3.30;;
57443;SDS011;43289;52.962;6.196;2023-07-08T13:01:33;6.78;;;3.72;;
57443;SDS011;43289;52.962;6.196;2023-07-08T13:04:10;5.47;;;3.75;;
57443;SDS011;43289;52.962;6.196;2023-07-08T13:06:36;5.90;;;4.53;;
57443;SDS011;43289;52.962;6.196;2023-07-08T13:11:44;6.75;;;4.03;;
57443;SDS011;43289;52.962;6.196;2023-07-08T13:14:12;7.60;;;4.47;;
57443;SDS011;43289;52.962;6.196;2023-07-08T13:16:40;7.80;;;4.95;;
57443;SDS011;43289;52.962;6.196;2023-07-08T13:19:06;6.30;;;4.40;;
57443;SDS011;43289;52.962;6.196;2023-07-08T13:21:34;6.03;;;4.65;;
57443;SDS011;43289;52.962;6.196;2023-07-08T13:24:00;7.88;;;4.65;;
57443;SDS011;43289;52.962;6.196;2023-07-08T13:26:28;6.75;;;4.65;;
57443;SDS011;43289;52.962;6.196;2023-07-08T13:29:03;6.18;;;4.45;;
57443;SDS011;43289;52.962;6.196;2023-07-08T13:31:34;10.27;;;4.45;;
57443;SDS011;43289;52.962;6.196;2023-07-08T13:34:05;7.07;;;4.68;;
57443;SDS011;43289;52.962;6.196;2023-07-08T13:36:33;6.15;;;5.05;;
57443;SDS011;43289;52.962;6.196;2023-07-08T13:39:00;10.23;;;4.75;;
57443;SDS011;43289;52.962;6.196;2023-07-08T13:41:28;7.72;;;4.70;;
57443;SDS011;43289;52.962;6.196;2023-07-08T13:43:54;9.15;;;4.90;;
57443;SDS011;43289;52.962;6.196;2023-07-08T13:46:30;9.80;;;4.97;;
57443;SDS011;43289;52.962;6.196;2023-07-08T13:48:56;7.30;;;4.75;;
57443;SDS011;43289;52.962;6.196;2023-07-08T13:51:28;7.55;;;4.43;;
57443;SDS011;43289;52.962;6.196;2023-07-08T13:54:01;9.50;;;5.13;;
57443;SDS011;43289;52.962;6.196;2023-07-08T13:56:33;7.50;;;4.95;;
57443;SDS011;43289;52.962;6.196;2023-07-08T13:59:04;7.68;;;4.88;;
57443;SDS011;43289;52.962;6.196;2023-07-08T14:01:31;6.72;;;5.30;;
57443;SDS011;43289;52.962;6.196;2023-07-08T14:03:59;6.80;;;4.68;;
57443;SDS011;43289;52.962;6.196;2023-07-08T14:06:30;7.90;;;4.60;;
57443;SDS011;43289;52.962;6.196;2023-07-08T14:08:58;6.63;;;4.53;;
57443;SDS011;43289;52.962;6.196;2023-07-08T14:11:24;9.05;;;5.07;;
57443;SDS011;43289;52.962;6.196;2023-07-08T14:13:50;7.18;;;4.80;;
57443;SDS011;43289;52.962;6.196;2023-07-08T14:19:25;8.45;;;4.85;;
57443;SDS011;43289;52.962;6.196;2023-07-08T14:21:54;19.10;;;4.78;;
57443;SDS011;43289;52.962;6.196;2023-07-08T14:24:21;7.72;;;5.05;;
57443;SDS011;43289;52.962;6.196;2023-07-08T14:26:47;6.80;;;4.80;;
57443;SDS011;43289;52.962;6.196;2023-07-08T14:29:13;6.80;;;4.65;;
57443;SDS011;43289;52.962;6.196;2023-07-08T14:31:40;6.80;;;5.07;;
57443;SDS011;43289;52.962;6.196;2023-07-08T14:34:08;7.22;;;4.78;;
57443;SDS011;43289;52.962;6.196;2023-07-08T14:36:34;8.70;;;4.82;;
57443;SDS011;43289;52.962;6.196;2023-07-08T14:39:01;6.55;;;5.07;;
57443;SDS011;43289;52.962;6.196;2023-07-08T14:41:33;6.20;;;4.53;;
57443;SDS011;43289;52.962;6.196;2023-07-08T14:43:59;7.68;;;5.30;;
57443;SDS011;43289;52.962;6.196;2023-07-08T14:46:25;7.68;;;5.18;;
57443;SDS011;43289;52.962;6.196;2023-07-08T14:48:51;5.85;;;4.97;;
57443;SDS011;43289;52.962;6.196;2023-07-08T14:51:18;6.75;;;4.72;;
57443;SDS011;43289;52.962;6.196;2023-07-08T14:53:44;7.15;;;4.80;;
57443;SDS011;43289;52.962;6.196;2023-07-08T14:56:15;7.07;;;5.30;;
57443;SDS011;43289;52.962;6.196;2023-07-08T14:58:42;9.25;;;4.93;;
57443;SDS011;43289;52.962;6.196;2023-07-08T15:01:11;7.15;;;5.25;;
57443;SDS011;43289;52.962;6.196;2023-07-08T15:03:39;7.63;;;4.72;;
57443;SDS011;43289;52.962;6.196;2023-07-08T15:06:08;10.68;;;5.00;;
57443;SDS011;43289;52.962;6.196;2023-07-08T15:08:35;6.32;;;4.60;;
57443;SDS011;43289;52.962;6.196;2023-07-08T15:11:01;6.60;;;5.05;;
57443;SDS011;43289;52.962;6.196;2023-07-08T15:13:31;10.45;;;5.20;;
57443;SDS011;43289;52.962;6.196;2023-07-08T15:15:57;8.90;;;5.53;;
57443;SDS011;43289;52.962;6.196;2023-07-08T15:18:23;6.93;;;4.75;;
57443;SDS011;43289;52.962;6.196;2023-07-08T15:20:49;9.02;;;5.40;;
57443;SDS011;43289;52.962;6.196;2023-07-08T15:23:15;7.45;;;5.07;;
57443;SDS011;43289;52.962;6.196;2023-07-08T15:25:44;6.97;;;4.75;;
57443;SDS011;43289;52.962;6.196;2023-07-08T15:28:25;6.47;;;4.85;;
57443;SDS011;43289;52.962;6.196;2023-07-08T15:30:59;6.55;;;4.72;;
57443;SDS011;43289;52.962;6.196;2023-07-08T15:33:26;8.70;;;5.10;;
57443;SDS011;43289;52.962;6.196;2023-07-08T15:35:52;7.05;;;4.97;;
57443;SDS011;43289;52.962;6.196;2023-07-08T15:38:18;6.95;;;4.93;;
57443;SDS011;43289;52.962;6.196;2023-07-08T15:40:44;10.55;;;5.38;;
57443;SDS011;43289;52.962;6.196;2023-07-08T15:43:14;5.50;;;4.60;;
57443;SDS011;43289;52.962;6.196;2023-07-08T15:45:40;9.38;;;4.78;;
57443;SDS011;43289;52.962;6.196;2023-07-08T15:48:16;7.35;;;4.75;;
57443;SDS011;43289;52.962;6.196;2023-07-08T15:50:43;7.85;;;4.75;;
57443;SDS011;43289;52.962;6.196;2023-07-08T15:53:09;6.15;;;4.75;;
57443;SDS011;43289;52.962;6.196;2023-07-08T15:55:36;6.97;;;4.78;;